Time;durP1;ratioP1;P1;durP2;ratioP2;P2;SDS_P1;SDS_P2;PMS_P1;PMS_P2;Temp;Humidity;BMP_temperature;BMP_pressure;BME280_temperature;BME280_humidity;BME280_pressure;Samples;Min_cycle;Max_cycle;Signal;HPM_P1;HPM_P2
2022/06/02 00:00:06;;;;;;;11.68;9.10;;;9.70;99.90;;;;;;12195521;29;20213;-83
2022/06/02 00:06:21;;;;;;;10.98;9.55;;;9.80;99.90;;;;;;12184106;29;20555;-82
2022/06/02 00:12:51;;;;;;;11.82;9.88;;;9.80;99.90;;;;;;12185614;29;20064;-85
2022/06/02 00:19:02;;;;;;;14.35;9.40;;;9.90;99.90;;;;;;12186577;29;20060;-83
2022/06/02 00:25:18;;;;;;;16.48;10.07;;;9.80;99.90;;;;;;12198677;29;20059;-83
2022/06/02 00:31:28;;;;;;;13.13;9.77;;;9.70;99.90;;;;;;12210171;29;20080;-84
2022/06/02 00:37:40;;;;;;;11.65;9.55;;;9.70;99.90;;;;;;12191686;29;20408;-83
2022/06/02 00:44:02;;;;;;;12.70;10.50;;;9.60;99.90;;;;;;12199715;29;20114;-83
2022/06/02 00:50:48;;;;;;;10.73;9.55;;;9.60;99.90;;;;;;12199252;29;20572;-83
2022/06/02 00:57:30;;;;;;;10.45;9.35;;;9.80;99.90;;;;;;12207318;29;20068;-83
2022/06/02 01:03:47;;;;;;;11.88;9.45;;;9.80;99.90;;;;;;12191485;29;20135;-83
2022/06/02 01:10:06;;;;;;;13.35;10.18;;;9.60;99.90;;;;;;12215486;29;20052;-84
2022/06/02 01:16:19;;;;;;;12.38;11.00;;;9.60;99.90;;;;;;12188375;29;20477;-83
2022/06/02 01:22:33;;;;;;;11.93;10.63;;;9.50;99.90;;;;;;12200227;29;20384;-83
2022/06/02 01:29:03;;;;;;;14.17;10.60;;;9.80;99.90;;;;;;12205180;29;20078;-85
2022/06/02 01:35:34;;;;;;;13.93;10.85;;;9.70;99.90;;;;;;12203558;29;20139;-83
2022/06/02 01:41:59;;;;;;;12.75;10.07;;;9.60;99.90;;;;;;12173217;29;20196;-85
2022/06/02 01:48:15;;;;;;;12.98;11.38;;;9.50;99.90;;;;;;12239277;29;20067;-83
2022/06/02 01:54:30;;;;;;;13.68;10.93;;;9.50;99.90;;;;;;12221215;29;20099;-84
2022/06/02 02:00:34;;;;;;;12.10;10.57;;;9.40;99.90;;;;;;12184101;29;20658;-84
2022/06/02 02:06:42;;;;;;;;;;;9.50;99.90;;;;;;12187346;29;20070;-83
2022/06/02 02:12:50;;;;;;;11.90;10.02;;;9.60;99.90;;;;;;12204487;29;19922;-83
2022/06/02 02:18:58;;;;;;;12.02;10.13;;;9.60;99.90;;;;;;12180087;29;20055;-84
2022/06/02 02:25:00;;;;;;;11.98;9.85;;;9.50;99.90;;;;;;12197735;29;20149;-84
2022/06/02 02:31:27;;;;;;;10.48;9.00;;;9.50;99.90;;;;;;12213983;29;20087;-84
2022/06/02 02:37:37;;;;;;;10.40;9.23;;;9.50;99.90;;;;;;12208117;29;20055;-84
2022/06/02 02:43:52;;;;;;;20.23;10.45;;;9.50;99.90;;;;;;12202183;29;20099;-83
2022/06/02 02:50:05;;;;;;;15.35;10.48;;;9.40;99.90;;;;;;12179682;29;20056;-84
2022/06/02 02:56:20;;;;;;;13.45;11.38;;;9.40;99.90;;;;;;12189976;29;20521;-84
2022/06/02 03:02:27;;;;;;;;;;;9.40;99.90;;;;;;12209063;29;20059;-83
2022/06/02 03:08:44;;;;;;;13.00;10.65;;;9.30;99.90;;;;;;12178563;29;19931;-83
2022/06/02 03:15:23;;;;;;;14.73;11.75;;;9.40;99.90;;;;;;12194379;29;20064;-83
2022/06/02 03:21:34;;;;;;;13.90;11.80;;;9.30;99.90;;;;;;12231948;28;20064;-84
2022/06/02 03:28:05;;;;;;;17.77;12.55;;;9.00;99.90;;;;;;12198256;29;20071;-83
2022/06/02 03:34:30;;;;;;;14.68;11.73;;;9.00;99.90;;;;;;12213656;29;20056;-83
2022/06/02 03:41:07;;;;;;;15.15;11.98;;;9.00;99.90;;;;;;12207323;29;20071;-83
2022/06/02 03:47:23;;;;;;;14.85;11.30;;;9.10;99.90;;;;;;12179204;29;20231;-83
2022/06/02 03:53:51;;;;;;;15.02;11.65;;;9.10;99.90;;;;;;12169954;29;20091;-83
2022/06/02 04:00:09;;;;;;;13.07;10.63;;;9.10;99.90;;;;;;12200507;29;20095;-83
2022/06/02 04:06:17;;;;;;;14.65;12.00;;;9.00;99.90;;;;;;12179011;29;20079;-84
2022/06/02 04:26:07;;;;;;;17.10;13.40;;;9.10;99.90;;;;;;12192624;29;20449;-83
2022/06/02 04:32:29;;;;;;;17.95;14.52;;;9.30;99.90;;;;;;12153431;29;20200;-85
2022/06/02 04:38:55;;;;;;;19.45;14.90;;;9.40;99.90;;;;;;12194106;29;20060;-84
2022/06/02 04:45:23;;;;;;;18.45;14.65;;;9.40;99.90;;;;;;12174354;29;20095;-84
2022/06/02 04:51:41;;;;;;;19.38;14.65;;;9.30;99.90;;;;;;12190009;29;20147;-84
2022/06/02 04:58:16;;;;;;;26.92;19.23;;;9.10;99.90;;;;;;12186090;29;20084;-85
2022/06/02 05:04:31;;;;;;;25.95;19.13;;;9.20;99.90;;;;;;12170439;29;20111;-83
2022/06/02 05:10:45;;;;;;;16.30;12.55;;;9.30;99.90;;;;;;12204410;29;20060;-83
2022/06/02 05:17:08;;;;;;;22.35;13.77;;;9.40;99.90;;;;;;12207082;29;20082;-84
2022/06/02 05:23:43;;;;;;;69.72;19.00;;;9.40;99.90;;;;;;12199735;29;20094;-83
2022/06/02 05:29:51;;;;;;;;;;;9.40;99.90;;;;;;12204534;29;20055;-84
2022/06/02 05:36:12;;;;;;;31.50;15.93;;;9.40;99.90;;;;;;12214121;29;19971;-83
2022/06/02 05:42:33;;;;;;;21.15;15.15;;;9.40;99.90;;;;;;12215174;29;20091;-83
2022/06/02 05:48:38;;;;;;;27.00;15.45;;;9.40;99.90;;;;;;12209893;29;20080;-85
2022/06/02 05:54:39;;;;;;;;;;;9.50;99.90;;;;;;12207987;29;20572;-85
2022/06/02 06:00:56;;;;;;;226.98;21.90;;;9.60;99.90;;;;;;12205722;29;19991;-84
2022/06/02 06:07:06;;;;;;;84.63;20.35;;;9.50;99.90;;;;;;12192501;29;20534;-85
2022/06/02 06:13:11;;;;;;;35.53;18.35;;;9.50;99.90;;;;;;12201376;29;20139;-83
2022/06/02 06:19:31;;;;;;;32.30;18.95;;;9.50;99.90;;;;;;12189286;29;20139;-83
2022/06/02 06:26:19;;;;;;;25.33;18.38;;;9.50;99.90;;;;;;12206302;29;20565;-84
2022/06/02 06:32:36;;;;;;;27.85;17.55;;;9.50;99.90;;;;;;12159022;29;20192;-84
2022/06/02 06:39:03;;;;;;;32.90;20.38;;;9.60;99.90;;;;;;12186394;29;20052;-84
2022/06/02 06:45:20;;;;;;;32.78;17.67;;;9.80;99.90;;;;;;12193057;29;20056;-83
2022/06/02 06:51:36;;;;;;;28.45;19.10;;;10.20;99.90;;;;;;12183242;29;20072;-83
2022/06/02 06:57:49;;;;;;;28.05;19.05;;;10.30;99.90;;;;;;12180718;29;20104;-85
2022/06/02 07:04:08;;;;;;;24.10;17.67;;;10.40;99.90;;;;;;12190656;29;20131;-84
2022/06/02 07:10:30;;;;;;;22.08;16.52;;;10.30;99.90;;;;;;12187223;29;20872;-83
2022/06/02 07:16:55;;;;;;;21.63;15.27;;;10.40;99.90;;;;;;12181215;29;20143;-83
2022/06/02 07:23:33;;;;;;;25.85;18.33;;;10.50;99.90;;;;;;12181362;29;20547;-85
2022/06/02 07:29:57;;;;;;;26.55;18.67;;;10.50;99.90;;;;;;12121477;29;20168;-84
2022/06/02 07:36:31;;;;;;;25.55;17.98;;;10.50;99.90;;;;;;12170449;29;20091;-84
2022/06/02 07:43:01;;;;;;;24.67;19.05;;;10.70;99.90;;;;;;12194802;29;20099;-83
2022/06/02 07:49:24;;;;;;;22.38;15.63;;;10.80;99.90;;;;;;12183051;29;20072;-83
2022/06/02 07:55:32;;;;;;;22.17;16.27;;;11.10;99.90;;;;;;12221310;29;20052;-83
2022/06/02 08:01:52;;;;;;;17.75;13.82;;;11.20;99.90;;;;;;12199264;29;20152;-84
2022/06/02 08:07:59;;;;;;;18.30;13.02;;;11.10;99.90;;;;;;12185826;29;20130;-85
2022/06/02 08:14:18;;;;;;;14.93;11.95;;;10.90;99.90;;;;;;12170575;29;20107;-85
2022/06/02 08:20:48;;;;;;;15.25;10.68;;;11.20;99.90;;;;;;12192830;29;20205;-85
2022/06/02 08:27:08;;;;;;;13.38;9.93;;;11.60;99.90;;;;;;12188620;29;20216;-83
2022/06/02 08:33:22;;;;;;;14.32;8.45;;;11.80;99.90;;;;;;12172684;29;20460;-85
2022/06/02 08:39:55;;;;;;;15.20;8.63;;;12.00;99.90;;;;;;12183423;29;20059;-85
2022/06/02 08:46:16;;;;;;;10.90;7.38;;;12.30;99.90;;;;;;12199753;29;20139;-84
2022/06/02 08:52:38;;;;;;;9.35;6.85;;;12.10;99.90;;;;;;12218632;29;20059;-83
2022/06/02 08:58:59;;;;;;;9.68;5.45;;;12.30;99.90;;;;;;12197529;29;20186;-85
2022/06/02 09:05:46;;;;;;;7.47;4.50;;;12.70;99.90;;;;;;12209678;29;20051;-84
2022/06/02 09:12:26;;;;;;;7.28;4.85;;;12.70;99.90;;;;;;12183087;29;20142;-86
2022/06/02 09:19:02;;;;;;;10.07;5.70;;;12.80;99.90;;;;;;12207588;29;20111;-86
2022/06/02 09:25:28;;;;;;;9.10;5.70;;;12.70;99.90;;;;;;12194263;29;20054;-85
2022/06/02 09:32:00;;;;;;;8.98;5.70;;;13.10;99.90;;;;;;12194554;29;20522;-87
2022/06/02 09:38:30;;;;;;;8.10;4.93;;;13.20;99.90;;;;;;12197764;29;20429;-84
2022/06/02 09:44:43;;;;;;;5.93;3.58;;;13.10;99.90;;;;;;12222576;29;20541;-85
2022/06/02 09:50:59;;;;;;;4.88;3.67;;;13.80;99.90;;;;;;12199650;29;20056;-87
2022/06/02 10:03:53;;;;;;;6.32;4.57;;;13.70;99.90;;;;;;12223575;29;20492;-85
2022/06/02 10:10:19;;;;;;;5.63;4.07;;;14.30;99.90;;;;;;12187943;29;20064;-86
2022/06/02 10:16:46;;;;;;;5.60;3.17;;;14.80;99.90;;;;;;12178476;29;20102;-87
2022/06/02 10:23:10;;;;;;;5.65;3.33;;;15.30;99.90;;;;;;12202307;29;20051;-87
2022/06/02 10:29:50;;;;;;;5.05;3.28;;;15.70;99.90;;;;;;12197418;29;20465;-88
2022/06/02 10:36:02;;;;;;;4.25;2.85;;;16.10;99.90;;;;;;12199067;29;20184;-87
2022/06/02 10:42:42;;;;;;;4.72;2.78;;;16.50;99.90;;;;;;12184627;29;20106;-87
2022/06/02 10:49:07;;;;;;;6.38;3.50;;;16.00;99.90;;;;;;12201730;29;20072;-85
2022/06/02 10:55:27;;;;;;;5.53;3.72;;;15.30;99.90;;;;;;12182885;29;20559;-85
2022/06/02 11:02:12;;;;;;;3.30;2.58;;;15.70;99.90;;;;;;12182109;29;20594;-87
2022/06/02 11:08:39;;;;;;;4.25;2.30;;;16.40;99.90;;;;;;12184498;29;20056;-87
2022/06/02 11:15:10;;;;;;;3.58;1.85;;;16.90;99.90;;;;;;12177656;29;20408;-86
2022/06/02 11:21:50;;;;;;;3.97;2.00;;;16.30;99.90;;;;;;12201978;29;20138;-87
2022/06/02 11:28:08;;;;;;;5.13;2.58;;;15.90;99.90;;;;;;12207392;29;20464;-87
2022/06/02 11:34:20;;;;;;;4.85;2.63;;;16.00;99.90;;;;;;12198957;29;20055;-87
2022/06/02 11:40:51;;;;;;;4.55;2.70;;;16.60;99.90;;;;;;12199330;29;20052;-86
2022/06/02 11:47:20;;;;;;;3.38;2.15;;;16.70;99.90;;;;;;12171482;29;20108;-87
2022/06/02 11:53:48;;;;;;;4.93;2.80;;;16.80;99.90;;;;;;12191849;29;20099;-86
2022/06/02 12:00:08;;;;;;;5.00;3.00;;;16.00;99.90;;;;;;12184395;29;20208;-88
2022/06/02 12:06:30;;;;;;;6.72;2.88;;;15.90;99.90;;;;;;12187004;29;20056;-85
2022/06/02 12:12:41;;;;;;;3.92;2.60;;;16.10;99.90;;;;;;12179993;29;20142;-87
2022/06/02 12:18:45;;;;;;;3.78;2.38;;;16.30;99.90;;;;;;12199759;29;20481;-85
2022/06/02 12:25:30;;;;;;;5.25;2.50;;;16.30;99.90;;;;;;12182648;29;20135;-87
2022/06/02 12:32:03;;;;;;;5.53;2.65;;;16.00;99.90;;;;;;12179339;29;20200;-87
2022/06/02 12:38:52;;;;;;;4.57;2.80;;;15.70;99.90;;;;;;12204154;29;20083;-84
2022/06/02 12:45:05;;;;;;;4.07;2.53;;;15.50;99.90;;;;;;12011599;29;20074;-87
2022/06/02 12:51:52;;;;;;;3.75;2.35;;;15.40;99.90;;;;;;12200658;29;20056;-87
2022/06/02 12:58:09;;;;;;;4.28;3.00;;;16.10;99.90;;;;;;12161263;29;20143;-85
2022/06/02 13:04:34;;;;;;;6.53;3.40;;;16.60;99.90;;;;;;12174736;29;20512;-84
2022/06/02 13:11:33;;;;;;;4.50;2.83;;;16.70;99.90;;;;;;12192299;29;20131;-85
2022/06/02 13:17:50;;;;;;;6.13;2.40;;;17.20;99.90;;;;;;12049381;29;20468;-84
2022/06/02 13:24:32;;;;;;;3.55;2.15;;;17.30;99.90;;;;;;12193087;29;20044;-87
2022/06/02 13:30:48;;;;;;;2.95;1.60;;;17.60;99.90;;;;;;12190689;29;20123;-88
2022/06/02 13:37:24;;;;;;;2.85;1.50;;;17.90;99.90;;;;;;12204411;29;20054;-86
2022/06/02 13:43:51;;;;;;;4.72;1.98;;;17.50;99.90;;;;;;12203613;29;20056;-86
2022/06/02 13:50:12;;;;;;;7.88;2.50;;;17.50;99.90;;;;;;12199395;29;20052;-87
2022/06/02 14:03:22;;;;;;;4.68;2.30;;;17.60;99.90;;;;;;12184018;29;20052;-85
2022/06/02 14:09:53;;;;;;;5.47;1.92;;;17.30;99.90;;;;;;12190840;29;20405;-87
2022/06/02 14:16:08;;;;;;;4.40;1.65;;;17.00;99.90;;;;;;12209572;29;20387;-87
2022/06/02 14:22:19;;;;;;;4.30;2.10;;;16.60;99.90;;;;;;12192822;29;20052;-86
2022/06/02 14:28:32;;;;;;;5.97;2.30;;;16.20;99.90;;;;;;12187351;29;20263;-85
2022/06/02 14:34:55;;;;;;;3.90;2.33;;;16.10;99.90;;;;;;12213082;29;20587;-88
2022/06/02 14:41:11;;;;;;;5.10;2.30;;;16.10;99.90;;;;;;12187385;29;20799;-87
2022/06/02 14:47:29;;;;;;;2.97;1.88;;;16.70;99.90;;;;;;12196514;29;20617;-88
2022/06/02 14:53:59;;;;;;;3.40;1.92;;;17.20;99.90;;;;;;12189764;29;20521;-86
2022/06/02 15:00:14;;;;;;;3.42;1.95;;;17.50;99.90;;;;;;12198299;29;20055;-87
2022/06/02 15:06:40;;;;;;;3.20;1.92;;;17.70;99.90;;;;;;12183984;29;20419;-88
2022/06/02 15:12:57;;;;;;;2.38;1.50;;;17.90;99.90;;;;;;12179647;29;20048;-88
2022/06/02 15:19:18;;;;;;;3.92;1.52;;;18.00;99.90;;;;;;12180803;29;20059;-88
2022/06/02 15:26:21;;;;;;;2.75;1.35;;;18.00;99.90;;;;;;12182375;29;20060;-86
2022/06/02 15:32:34;;;;;;;4.75;1.90;;;18.20;99.90;;;;;;12117083;29;20452;-88
2022/06/02 15:39:32;;;;;;;3.93;1.60;;;17.90;99.90;;;;;;12206220;29;20195;-88
2022/06/02 15:45:55;;;;;;;3.45;1.65;;;17.50;99.90;;;;;;12043768;29;20163;-86
2022/06/02 15:52:09;;;;;;;3.13;1.20;;;17.00;99.90;;;;;;12178689;29;20072;-87
2022/06/02 15:58:11;;;;;;;2.70;1.17;;;16.70;99.90;;;;;;12220005;29;20037;-86
2022/06/02 16:04:45;;;;;;;2.47;1.38;;;16.50;99.90;;;;;;12205568;29;20473;-87
2022/06/02 16:11:17;;;;;;;2.13;1.23;;;16.30;99.90;;;;;;12136014;29;20641;-86
2022/06/02 16:18:03;;;;;;;4.82;1.40;;;16.10;99.90;;;;;;12170105;29;20056;-86
2022/06/02 16:24:14;;;;;;;3.70;1.02;;;15.90;99.90;;;;;;12150298;29;20052;-86
2022/06/02 16:30:31;;;;;;;4.65;1.33;;;15.90;99.90;;;;;;12195925;29;20106;-86
2022/06/02 16:37:13;;;;;;;2.85;1.15;;;16.10;99.90;;;;;;12185638;29;20079;-87
2022/06/02 16:43:34;;;;;;;2.38;1.30;;;16.30;99.90;;;;;;12179975;29;20060;-88
2022/06/02 16:50:02;;;;;;;2.17;1.23;;;16.70;99.90;;;;;;12168883;29;20063;-87
2022/06/02 16:56:06;;;;;;;2.92;1.15;;;16.80;99.90;;;;;;12191801;29;20074;-86
2022/06/02 17:02:37;;;;;;;2.03;1.13;;;17.00;99.90;;;;;;12205500;29;20428;-85
2022/06/02 17:09:05;;;;;;;1.70;1.00;;;17.30;99.90;;;;;;12203753;29;20059;-88
2022/06/02 17:15:53;;;;;;;1.13;0.90;;;17.40;99.90;;;;;;12193176;29;20147;-87
2022/06/02 17:22:16;;;;;;;2.72;0.93;;;17.80;99.90;;;;;;12175295;29;20064;-87
2022/06/02 17:29:00;;;;;;;1.17;0.70;;;17.60;99.90;;;;;;12204963;29;20080;-87
2022/06/02 17:35:42;;;;;;;1.92;1.00;;;17.80;99.90;;;;;;12194604;29;20102;-86
2022/06/02 17:42:20;;;;;;;1.50;0.85;;;18.20;99.90;;;;;;12206467;29;20448;-86
2022/06/02 17:48:47;;;;;;;1.38;0.80;;;18.80;99.90;;;;;;12174850;29;20086;-85
2022/06/02 17:55:03;;;;;;;1.42;0.90;;;19.00;99.90;;;;;;12180309;29;20063;-85
2022/06/02 18:01:10;;;;;;;2.25;0.73;;;19.00;99.90;;;;;;12188711;29;20091;-87
2022/06/02 18:07:28;;;;;;;1.70;0.70;;;19.00;99.90;;;;;;12181043;29;20143;-86
2022/06/02 18:13:52;;;;;;;1.67;0.80;;;18.40;99.90;;;;;;12183594;29;20086;-87
2022/06/02 18:20:17;;;;;;;3.47;0.87;;;17.80;99.90;;;;;;12182682;29;20060;-87
2022/06/02 18:26:23;;;;;;;4.90;1.70;;;17.30;99.90;;;;;;12210894;29;20129;-85
2022/06/02 18:32:56;;;;;;;6.10;3.13;;;16.90;99.90;;;;;;12195835;29;20142;-86
2022/06/02 18:39:36;;;;;;;2.33;1.00;;;16.70;99.90;;;;;;12185504;29;20055;-87
2022/06/02 18:45:59;;;;;;;2.53;1.23;;;16.40;99.90;;;;;;12184860;29;20420;-87
2022/06/02 18:52:37;;;;;;;2.47;0.87;;;16.30;99.90;;;;;;12202945;29;20060;-87
2022/06/02 18:59:13;;;;;;;4.28;0.85;;;16.10;99.90;;;;;;12185565;29;20143;-85
2022/06/02 19:05:40;;;;;;;2.58;1.38;;;16.10;99.90;;;;;;12178689;29;20088;-85
2022/06/02 19:18:58;;;;;;;2.47;0.93;;;15.70;99.90;;;;;;12200312;29;20092;-86
2022/06/02 19:25:24;;;;;;;2.28;1.40;;;15.60;99.90;;;;;;12200247;29;20111;-85
2022/06/02 19:31:54;;;;;;;2.30;1.40;;;15.50;99.90;;;;;;12194514;29;20056;-85
2022/06/02 19:38:15;;;;;;;2.55;0.90;;;15.30;99.90;;;;;;12177474;29;20056;-85
2022/06/02 19:44:41;;;;;;;2.53;1.00;;;15.00;99.90;;;;;;12198848;29;20098;-85
2022/06/02 19:50:52;;;;;;;11.73;1.80;;;14.90;99.90;;;;;;12200677;29;20063;-85
2022/06/02 19:57:04;;;;;;;2.17;1.05;;;14.90;99.90;;;;;;12182848;29;20143;-85
2022/06/02 20:03:09;;;;;;;3.15;1.15;;;14.80;99.90;;;;;;12193451;29;20155;-85
2022/06/02 20:09:53;;;;;;;1.95;1.00;;;14.50;99.90;;;;;;12177616;29;20059;-84
2022/06/02 20:16:08;;;;;;;4.03;1.30;;;14.30;99.90;;;;;;12180542;29;20083;-86
2022/06/02 20:22:10;;;;;;;3.63;1.13;;;14.10;99.90;;;;;;12207414;29;20098;-86
2022/06/02 20:28:20;;;;;;;3.92;2.42;;;13.90;99.90;;;;;;12202816;29;20392;-84
2022/06/02 20:34:40;;;;;;;2.80;1.25;;;13.80;99.90;;;;;;12206688;29;20064;-84
2022/06/02 20:40:51;;;;;;;2.95;1.35;;;13.70;99.90;;;;;;12197662;29;20060;-85
2022/06/02 20:47:05;;;;;;;2.22;1.40;;;13.60;99.90;;;;;;12172144;29;20056;-84
2022/06/02 20:53:28;;;;;;;3.77;1.47;;;13.50;99.90;;;;;;12182185;29;20068;-85
2022/06/02 20:59:54;;;;;;;2.97;1.63;;;13.30;99.90;;;;;;12202675;29;20056;-84
2022/06/02 21:06:05;;;;;;;2.42;1.40;;;13.20;99.90;;;;;;12202228;29;20110;-85
2022/06/02 21:12:22;;;;;;;4.18;1.50;;;13.20;99.90;;;;;;12189351;29;20168;-84
2022/06/02 21:18:42;;;;;;;2.55;1.38;;;13.10;99.90;;;;;;12185905;29;20445;-85
2022/06/02 21:24:44;;;;;;;3.20;1.30;;;12.90;99.90;;;;;;12190908;29;20052;-85
2022/06/02 21:30:53;;;;;;;5.03;1.38;;;12.90;99.90;;;;;;12185966;29;20052;-84
2022/06/02 21:37:02;;;;;;;7.63;1.50;;;12.80;99.90;;;;;;12194226;29;20059;-85
2022/06/02 21:43:08;;;;;;;4.88;1.40;;;12.60;99.90;;;;;;12195304;29;20096;-85
2022/06/02 21:49:27;;;;;;;2.47;1.52;;;12.60;99.90;;;;;;12201403;29;20048;-85
2022/06/02 21:55:43;;;;;;;3.15;1.55;;;12.60;99.90;;;;;;12195636;29;20055;-85
2022/06/02 22:02:07;;;;;;;2.20;1.60;;;12.40;99.90;;;;;;12191275;29;20081;-85
2022/06/02 22:08:27;;;;;;;5.53;2.00;;;12.30;99.90;;;;;;12181114;29;20087;-84
2022/06/02 22:14:36;;;;;;;4.90;2.00;;;12.30;99.90;;;;;;12192805;29;20517;-84
2022/06/02 22:20:52;;;;;;;4.38;2.03;;;12.50;99.90;;;;;;12186607;29;20052;-84
2022/06/02 22:27:16;;;;;;;3.15;1.80;;;12.60;99.90;;;;;;12200661;29;20134;-85
2022/06/02 22:33:31;;;;;;;3.22;1.67;;;12.60;99.90;;;;;;12195164;29;20064;-85
2022/06/02 22:39:41;;;;;;;4.13;1.60;;;12.70;99.90;;;;;;12202014;29;20139;-84
2022/06/02 22:45:57;;;;;;;1.88;1.30;;;12.60;99.90;;;;;;12195328;29;20055;-85
2022/06/02 22:52:05;;;;;;;3.00;1.55;;;12.70;99.90;;;;;;12196323;29;20397;-85
2022/06/02 22:58:29;;;;;;;3.17;1.60;;;12.60;99.90;;;;;;12178422;29;20100;-84
2022/06/02 23:04:42;;;;;;;9.75;1.90;;;12.50;99.90;;;;;;12181209;29;20502;-84
2022/06/02 23:11:15;;;;;;;4.60;1.70;;;12.50;99.90;;;;;;12171048;29;20139;-84
2022/06/02 23:17:39;;;;;;;4.18;1.60;;;12.40;99.90;;;;;;12163196;29;20127;-84
2022/06/02 23:24:15;;;;;;;2.97;1.48;;;12.60;99.90;;;;;;12175109;29;20060;-84
2022/06/02 23:30:20;;;;;;;3.15;1.70;;;12.60;99.90;;;;;;12201544;29;20101;-84
2022/06/02 23:36:46;;;;;;;3.15;1.70;;;12.40;99.90;;;;;;12218829;28;20052;-85
2022/06/02 23:49:56;;;;;;;4.38;1.67;;;12.40;99.90;;;;;;12195906;29;20188;-85
2022/06/02 23:56:07;;;;;;;3.28;1.55;;;12.20;99.90;;;;;;12176843;29;20120;-84
